sensor_id;sensor_type;location;lat;lon;timestamp;P1;durP1;ratioP1;P2;durP2;ratioP2
17953;SDS011;9102;53.548;9.926;2023-04-01T00:01:28;25.23;;;10.07;;
17953;SDS011;9102;53.548;9.926;2023-04-01T00:03:56;24.85;;;10.15;;
17953;SDS011;9102;53.548;9.926;2023-04-01T00:06:24;31.00;;;10.82;;
17953;SDS011;9102;53.548;9.926;2023-04-01T00:08:50;21.77;;;10.15;;
17953;SDS011;9102;53.548;9.926;2023-04-01T00:11:18;21.73;;;10.50;;
17953;SDS011;9102;53.548;9.926;2023-04-01T00:13:45;24.00;;;10.57;;
17953;SDS011;9102;53.548;9.926;2023-04-01T00:16:11;26.65;;;10.32;;
17953;SDS011;9102;53.548;9.926;2023-04-01T00:18:39;22.52;;;10.30;;
17953;SDS011;9102;53.548;9.926;2023-04-01T00:21:07;29.85;;;10.73;;
17953;SDS011;9102;53.548;9.926;2023-04-01T00:23:34;26.98;;;10.70;;
17953;SDS011;9102;53.548;9.926;2023-04-01T00:26:02;27.00;;;10.48;;
17953;SDS011;9102;53.548;9.926;2023-04-01T00:28:30;26.95;;;10.95;;
17953;SDS011;9102;53.548;9.926;2023-04-01T00:30:57;29.30;;;10.95;;
17953;SDS011;9102;53.548;9.926;2023-04-01T00:33:23;29.55;;;10.68;;
17953;SDS011;9102;53.548;9.926;2023-04-01T00:35:52;26.35;;;10.77;;
17953;SDS011;9102;53.548;9.926;2023-04-01T00:38:20;26.77;;;10.43;;
17953;SDS011;9102;53.548;9.926;2023-04-01T00:40:47;26.13;;;10.40;;
17953;SDS011;9102;53.548;9.926;2023-04-01T00:43:15;27.30;;;10.63;;
17953;SDS011;9102;53.548;9.926;2023-04-01T00:45:44;26.73;;;11.68;;
17953;SDS011;9102;53.548;9.926;2023-04-01T00:48:13;21.13;;;10.73;;
17953;SDS011;9102;53.548;9.926;2023-04-01T00:50:44;20.35;;;10.50;;
17953;SDS011;9102;53.548;9.926;2023-04-01T00:53:15;23.80;;;10.50;;
17953;SDS011;9102;53.548;9.926;2023-04-01T00:55:48;25.65;;;10.77;;
17953;SDS011;9102;53.548;9.926;2023-04-01T00:58:20;26.35;;;11.38;;
17953;SDS011;9102;53.548;9.926;2023-04-01T01:00:50;21.13;;;9.40;;
17953;SDS011;9102;53.548;9.926;2023-04-01T01:03:18;25.52;;;10.70;;
17953;SDS011;9102;53.548;9.926;2023-04-01T01:06:00;32.03;;;11.55;;
17953;SDS011;9102;53.548;9.926;2023-04-01T01:09:06;27.13;;;10.43;;
17953;SDS011;9102;53.548;9.926;2023-04-01T01:11:44;25.60;;;10.50;;
17953;SDS011;9102;53.548;9.926;2023-04-01T01:14:19;28.17;;;10.00;;
17953;SDS011;9102;53.548;9.926;2023-04-01T01:16:56;26.55;;;10.70;;
17953;SDS011;9102;53.548;9.926;2023-04-01T01:19:49;33.35;;;11.07;;
17953;SDS011;9102;53.548;9.926;2023-04-01T01:22:35;26.30;;;10.00;;
17953;SDS011;9102;53.548;9.926;2023-04-01T01:25:14;21.63;;;9.90;;
17953;SDS011;9102;53.548;9.926;2023-04-01T01:27:49;29.75;;;10.15;;
17953;SDS011;9102;53.548;9.926;2023-04-01T01:33:17;21.05;;;10.00;;
17953;SDS011;9102;53.548;9.926;2023-04-01T01:36:04;22.40;;;10.32;;
17953;SDS011;9102;53.548;9.926;2023-04-01T01:38:33;28.65;;;10.15;;
17953;SDS011;9102;53.548;9.926;2023-04-01T01:41:01;18.95;;;9.13;;
17953;SDS011;9102;53.548;9.926;2023-04-01T01:43:32;30.15;;;10.40;;
17953;SDS011;9102;53.548;9.926;2023-04-01T01:46:04;24.35;;;10.10;;
17953;SDS011;9102;53.548;9.926;2023-04-01T01:48:35;22.90;;;9.57;;
17953;SDS011;9102;53.548;9.926;2023-04-01T01:51:05;25.05;;;9.95;;
17953;SDS011;9102;53.548;9.926;2023-04-01T01:53:31;23.58;;;9.90;;
17953;SDS011;9102;53.548;9.926;2023-04-01T01:55:58;24.40;;;9.52;;
17953;SDS011;9102;53.548;9.926;2023-04-01T01:58:27;28.55;;;10.20;;
17953;SDS011;9102;53.548;9.926;2023-04-01T02:00:57;28.73;;;10.10;;
17953;SDS011;9102;53.548;9.926;2023-04-01T02:03:26;25.38;;;10.07;;
17953;SDS011;9102;53.548;9.926;2023-04-01T02:05:56;21.85;;;9.15;;
17953;SDS011;9102;53.548;9.926;2023-04-01T02:08:27;23.83;;;10.07;;
17953;SDS011;9102;53.548;9.926;2023-04-01T02:10:59;20.35;;;9.43;;
17953;SDS011;9102;53.548;9.926;2023-04-01T02:13:29;21.80;;;8.90;;
17953;SDS011;9102;53.548;9.926;2023-04-01T02:16:02;19.13;;;8.82;;
17953;SDS011;9102;53.548;9.926;2023-04-01T02:18:35;22.00;;;9.50;;
17953;SDS011;9102;53.548;9.926;2023-04-01T02:21:03;28.75;;;9.77;;
17953;SDS011;9102;53.548;9.926;2023-04-01T02:23:34;26.13;;;9.57;;
17953;SDS011;9102;53.548;9.926;2023-04-01T02:26:02;24.02;;;10.93;;
17953;SDS011;9102;53.548;9.926;2023-04-01T02:28:31;21.40;;;10.95;;
17953;SDS011;9102;53.548;9.926;2023-04-01T02:30:59;25.17;;;12.07;;
17953;SDS011;9102;53.548;9.926;2023-04-01T02:33:28;26.95;;;12.13;;
17953;SDS011;9102;53.548;9.926;2023-04-01T02:35:56;24.05;;;11.80;;
17953;SDS011;9102;53.548;9.926;2023-04-01T02:38:24;30.95;;;12.88;;
17953;SDS011;9102;53.548;9.926;2023-04-01T02:40:57;32.33;;;12.90;;
17953;SDS011;9102;53.548;9.926;2023-04-01T02:43:25;27.75;;;12.95;;
17953;SDS011;9102;53.548;9.926;2023-04-01T02:45:52;30.63;;;12.85;;
17953;SDS011;9102;53.548;9.926;2023-04-01T02:48:19;30.35;;;12.00;;
17953;SDS011;9102;53.548;9.926;2023-04-01T02:50:46;32.22;;;12.63;;
17953;SDS011;9102;53.548;9.926;2023-04-01T02:53:13;35.17;;;12.88;;
17953;SDS011;9102;53.548;9.926;2023-04-01T02:55:40;30.15;;;11.98;;
17953;SDS011;9102;53.548;9.926;2023-04-01T02:58:08;33.00;;;12.60;;
17953;SDS011;9102;53.548;9.926;2023-04-01T03:00:35;30.77;;;12.93;;
17953;SDS011;9102;53.548;9.926;2023-04-01T03:03:02;31.50;;;12.02;;
17953;SDS011;9102;53.548;9.926;2023-04-01T03:05:29;25.40;;;11.77;;
17953;SDS011;9102;53.548;9.926;2023-04-01T03:07:56;35.53;;;12.82;;
17953;SDS011;9102;53.548;9.926;2023-04-01T03:10:22;29.35;;;12.55;;
17953;SDS011;9102;53.548;9.926;2023-04-01T03:12:49;24.92;;;11.68;;
17953;SDS011;9102;53.548;9.926;2023-04-01T03:15:17;26.88;;;11.88;;
17953;SDS011;9102;53.548;9.926;2023-04-01T03:17:44;29.63;;;12.57;;
17953;SDS011;9102;53.548;9.926;2023-04-01T03:20:12;25.80;;;12.00;;
17953;SDS011;9102;53.548;9.926;2023-04-01T03:22:39;29.98;;;11.93;;
17953;SDS011;9102;53.548;9.926;2023-04-01T03:25:07;28.45;;;11.65;;
17953;SDS011;9102;53.548;9.926;2023-04-01T03:27:34;24.98;;;11.55;;
17953;SDS011;9102;53.548;9.926;2023-04-01T03:30:01;31.80;;;12.80;;
17953;SDS011;9102;53.548;9.926;2023-04-01T03:32:30;24.48;;;11.52;;
17953;SDS011;9102;53.548;9.926;2023-04-01T03:34:57;26.60;;;11.93;;
17953;SDS011;9102;53.548;9.926;2023-04-01T03:37:24;27.33;;;12.55;;
17953;SDS011;9102;53.548;9.926;2023-04-01T03:39:51;27.90;;;12.13;;
17953;SDS011;9102;53.548;9.926;2023-04-01T03:42:18;27.15;;;11.60;;
17953;SDS011;9102;53.548;9.926;2023-04-01T03:44:44;25.55;;;12.55;;
17953;SDS011;9102;53.548;9.926;2023-04-01T03:47:11;29.73;;;12.70;;
17953;SDS011;9102;53.548;9.926;2023-04-01T03:49:39;27.00;;;12.30;;
17953;SDS011;9102;53.548;9.926;2023-04-01T03:52:08;32.45;;;13.95;;
17953;SDS011;9102;53.548;9.926;2023-04-01T03:54:37;26.23;;;12.38;;
17953;SDS011;9102;53.548;9.926;2023-04-01T03:57:03;33.55;;;13.85;;
17953;SDS011;9102;53.548;9.926;2023-04-01T03:59:30;25.67;;;12.65;;
17953;SDS011;9102;53.548;9.926;2023-04-01T04:01:57;27.98;;;12.18;;
17953;SDS011;9102;53.548;9.926;2023-04-01T04:04:25;31.33;;;12.60;;
17953;SDS011;9102;53.548;9.926;2023-04-01T04:06:53;30.52;;;12.35;;
17953;SDS011;9102;53.548;9.926;2023-04-01T04:09:20;25.45;;;12.13;;
17953;SDS011;9102;53.548;9.926;2023-04-01T04:11:47;24.67;;;11.73;;
17953;SDS011;9102;53.548;9.926;2023-04-01T04:14:14;27.27;;;11.75;;
17953;SDS011;9102;53.548;9.926;2023-04-01T04:16:40;26.33;;;11.48;;
17953;SDS011;9102;53.548;9.926;2023-04-01T04:19:07;30.98;;;12.38;;
17953;SDS011;9102;53.548;9.926;2023-04-01T04:21:34;23.63;;;10.95;;
17953;SDS011;9102;53.548;9.926;2023-04-01T04:24:03;28.73;;;11.95;;
17953;SDS011;9102;53.548;9.926;2023-04-01T04:26:30;25.73;;;11.82;;
17953;SDS011;9102;53.548;9.926;2023-04-01T04:28:57;30.17;;;12.50;;
17953;SDS011;9102;53.548;9.926;2023-04-01T04:31:24;25.90;;;12.05;;
17953;SDS011;9102;53.548;9.926;2023-04-01T04:33:51;27.65;;;12.18;;
17953;SDS011;9102;53.548;9.926;2023-04-01T04:36:19;31.88;;;12.80;;
17953;SDS011;9102;53.548;9.926;2023-04-01T04:38:46;28.25;;;13.07;;
17953;SDS011;9102;53.548;9.926;2023-04-01T04:41:15;25.48;;;12.45;;
17953;SDS011;9102;53.548;9.926;2023-04-01T04:43:48;34.92;;;13.45;;
17953;SDS011;9102;53.548;9.926;2023-04-01T04:46:16;32.15;;;13.60;;
17953;SDS011;9102;53.548;9.926;2023-04-01T04:48:43;26.42;;;12.85;;
17953;SDS011;9102;53.548;9.926;2023-04-01T04:51:12;29.08;;;13.32;;
17953;SDS011;9102;53.548;9.926;2023-04-01T04:53:40;28.15;;;13.77;;
17953;SDS011;9102;53.548;9.926;2023-04-01T04:56:07;27.80;;;12.38;;
17953;SDS011;9102;53.548;9.926;2023-04-01T04:58:35;31.48;;;12.68;;
17953;SDS011;9102;53.548;9.926;2023-04-01T05:01:05;28.63;;;13.45;;
17953;SDS011;9102;53.548;9.926;2023-04-01T05:03:32;27.17;;;12.23;;
17953;SDS011;9102;53.548;9.926;2023-04-01T05:05:59;27.55;;;13.48;;
17953;SDS011;9102;53.548;9.926;2023-04-01T05:08:26;24.38;;;12.73;;
17953;SDS011;9102;53.548;9.926;2023-04-01T05:10:53;34.55;;;14.05;;
17953;SDS011;9102;53.548;9.926;2023-04-01T05:13:20;27.90;;;13.82;;
17953;SDS011;9102;53.548;9.926;2023-04-01T05:15:48;25.77;;;12.88;;
17953;SDS011;9102;53.548;9.926;2023-04-01T05:18:15;32.25;;;13.70;;
17953;SDS011;9102;53.548;9.926;2023-04-01T05:20:45;27.00;;;13.18;;
17953;SDS011;9102;53.548;9.926;2023-04-01T05:23:13;29.13;;;13.80;;
17953;SDS011;9102;53.548;9.926;2023-04-01T05:25:40;27.95;;;13.75;;
17953;SDS011;9102;53.548;9.926;2023-04-01T05:28:07;36.13;;;14.70;;
17953;SDS011;9102;53.548;9.926;2023-04-01T05:30:34;32.75;;;14.48;;
17953;SDS011;9102;53.548;9.926;2023-04-01T05:33:02;31.80;;;13.98;;
17953;SDS011;9102;53.548;9.926;2023-04-01T05:35:29;34.42;;;15.15;;
17953;SDS011;9102;53.548;9.926;2023-04-01T05:37:56;28.83;;;14.32;;
17953;SDS011;9102;53.548;9.926;2023-04-01T05:40:22;22.65;;;12.52;;
17953;SDS011;9102;53.548;9.926;2023-04-01T05:42:49;27.90;;;12.90;;
17953;SDS011;9102;53.548;9.926;2023-04-01T05:45:16;23.45;;;13.32;;
17953;SDS011;9102;53.548;9.926;2023-04-01T05:47:43;15.65;;;8.00;;
17953;SDS011;9102;53.548;9.926;2023-04-01T05:50:11;4.88;;;2.63;;
17953;SDS011;9102;53.548;9.926;2023-04-01T05:52:38;3.50;;;2.20;;
17953;SDS011;9102;53.548;9.926;2023-04-01T05:55:05;2.92;;;1.80;;
17953;SDS011;9102;53.548;9.926;2023-04-01T05:57:32;2.30;;;1.63;;
17953;SDS011;9102;53.548;9.926;2023-04-01T05:59:59;2.10;;;1.55;;
17953;SDS011;9102;53.548;9.926;2023-04-01T06:02:26;4.20;;;1.67;;
17953;SDS011;9102;53.548;9.926;2023-04-01T06:04:54;2.35;;;1.60;;
17953;SDS011;9102;53.548;9.926;2023-04-01T06:07:30;2.53;;;1.85;;
17953;SDS011;9102;53.548;9.926;2023-04-01T06:09:57;5.57;;;2.00;;
17953;SDS011;9102;53.548;9.926;2023-04-01T06:12:29;3.75;;;2.10;;
17953;SDS011;9102;53.548;9.926;2023-04-01T06:15:11;2.75;;;1.90;;
17953;SDS011;9102;53.548;9.926;2023-04-01T06:17:48;3.67;;;2.20;;
17953;SDS011;9102;53.548;9.926;2023-04-01T06:20:28;2.80;;;1.95;;
17953;SDS011;9102;53.548;9.926;2023-04-01T06:23:05;3.25;;;2.20;;
17953;SDS011;9102;53.548;9.926;2023-04-01T06:25:54;2.55;;;2.00;;
17953;SDS011;9102;53.548;9.926;2023-04-01T06:28:48;3.50;;;1.92;;
17953;SDS011;9102;53.548;9.926;2023-04-01T06:31:38;2.97;;;2.10;;
17953;SDS011;9102;53.548;9.926;2023-04-01T06:34:28;2.38;;;1.88;;
17953;SDS011;9102;53.548;9.926;2023-04-01T06:37:14;4.00;;;2.15;;
17953;SDS011;9102;53.548;9.926;2023-04-01T06:40:01;2.80;;;1.90;;
17953;SDS011;9102;53.548;9.926;2023-04-01T06:42:53;4.10;;;1.90;;
17953;SDS011;9102;53.548;9.926;2023-04-01T06:45:34;2.47;;;2.00;;
17953;SDS011;9102;53.548;9.926;2023-04-01T06:48:13;3.05;;;1.80;;
17953;SDS011;9102;53.548;9.926;2023-04-01T06:51:01;1.55;;;1.20;;
17953;SDS011;9102;53.548;9.926;2023-04-01T06:53:43;2.70;;;1.42;;
17953;SDS011;9102;53.548;9.926;2023-04-01T06:56:18;2.17;;;1.20;;
17953;SDS011;9102;53.548;9.926;2023-04-01T06:58:48;1.58;;;1.30;;
17953;SDS011;9102;53.548;9.926;2023-04-01T07:01:20;2.80;;;1.40;;
17953;SDS011;9102;53.548;9.926;2023-04-01T07:03:52;1.42;;;0.93;;
17953;SDS011;9102;53.548;9.926;2023-04-01T07:06:25;1.58;;;1.20;;
17953;SDS011;9102;53.548;9.926;2023-04-01T07:08:57;7.18;;;4.88;;
17953;SDS011;9102;53.548;9.926;2023-04-01T07:11:31;1.70;;;1.30;;
17953;SDS011;9102;53.548;9.926;2023-04-01T07:14:00;2.55;;;1.30;;
17953;SDS011;9102;53.548;9.926;2023-04-01T07:16:30;1.90;;;1.15;;
17953;SDS011;9102;53.548;9.926;2023-04-01T07:19:00;2.53;;;1.30;;
17953;SDS011;9102;53.548;9.926;2023-04-01T07:21:31;3.45;;;1.08;;
17953;SDS011;9102;53.548;9.926;2023-04-01T07:24:03;1.00;;;0.88;;
17953;SDS011;9102;53.548;9.926;2023-04-01T07:26:33;2.22;;;0.93;;
17953;SDS011;9102;53.548;9.926;2023-04-01T07:29:00;2.00;;;1.10;;
17953;SDS011;9102;53.548;9.926;2023-04-01T07:31:32;1.58;;;0.80;;
17953;SDS011;9102;53.548;9.926;2023-04-01T07:34:11;1.30;;;1.00;;
17953;SDS011;9102;53.548;9.926;2023-04-01T07:36:45;1.88;;;1.08;;
17953;SDS011;9102;53.548;9.926;2023-04-01T07:39:21;2.47;;;1.25;;
17953;SDS011;9102;53.548;9.926;2023-04-01T07:41:58;1.83;;;1.15;;
17953;SDS011;9102;53.548;9.926;2023-04-01T07:44:34;1.17;;;0.85;;
17953;SDS011;9102;53.548;9.926;2023-04-01T07:47:10;1.63;;;1.10;;
17953;SDS011;9102;53.548;9.926;2023-04-01T07:49:47;1.23;;;1.10;;
17953;SDS011;9102;53.548;9.926;2023-04-01T07:52:23;1.80;;;1.23;;
17953;SDS011;9102;53.548;9.926;2023-04-01T07:54:56;2.00;;;1.13;;
17953;SDS011;9102;53.548;9.926;2023-04-01T07:57:30;2.83;;;1.35;;
17953;SDS011;9102;53.548;9.926;2023-04-01T08:00:05;1.58;;;1.02;;
17953;SDS011;9102;53.548;9.926;2023-04-01T08:02:41;1.42;;;1.00;;
17953;SDS011;9102;53.548;9.926;2023-04-01T08:05:19;2.97;;;1.30;;
17953;SDS011;9102;53.548;9.926;2023-04-01T08:07:53;2.03;;;0.68;;
17953;SDS011;9102;53.548;9.926;2023-04-01T08:10:29;0.88;;;0.80;;
17953;SDS011;9102;53.548;9.926;2023-04-01T08:13:05;2.83;;;0.90;;
17953;SDS011;9102;53.548;9.926;2023-04-01T08:15:38;2.33;;;0.90;;
17953;SDS011;9102;53.548;9.926;2023-04-01T08:18:15;1.10;;;0.80;;
17953;SDS011;9102;53.548;9.926;2023-04-01T08:20:50;2.05;;;1.00;;
17953;SDS011;9102;53.548;9.926;2023-04-01T08:23:21;3.05;;;1.10;;
17953;SDS011;9102;53.548;9.926;2023-04-01T08:25:50;2.17;;;1.63;;
17953;SDS011;9102;53.548;9.926;2023-04-01T08:28:25;2.33;;;1.15;;
17953;SDS011;9102;53.548;9.926;2023-04-01T08:30:57;1.38;;;1.00;;
17953;SDS011;9102;53.548;9.926;2023-04-01T08:33:29;1.50;;;1.00;;
17953;SDS011;9102;53.548;9.926;2023-04-01T08:35:58;1.88;;;0.90;;
17953;SDS011;9102;53.548;9.926;2023-04-01T08:38:29;1.67;;;0.93;;
17953;SDS011;9102;53.548;9.926;2023-04-01T08:40:59;2.75;;;1.00;;
17953;SDS011;9102;53.548;9.926;2023-04-01T08:43:35;1.63;;;0.80;;
17953;SDS011;9102;53.548;9.926;2023-04-01T08:46:26;1.80;;;0.80;;
17953;SDS011;9102;53.548;9.926;2023-04-01T08:49:23;1.98;;;1.00;;
17953;SDS011;9102;53.548;9.926;2023-04-01T08:52:05;1.33;;;0.80;;
17953;SDS011;9102;53.548;9.926;2023-04-01T08:57:43;3.25;;;0.90;;
17953;SDS011;9102;53.548;9.926;2023-04-01T09:00:24;1.50;;;0.77;;
17953;SDS011;9102;53.548;9.926;2023-04-01T09:05:55;1.90;;;1.02;;
17953;SDS011;9102;53.548;9.926;2023-04-01T09:08:47;1.15;;;0.95;;
17953;SDS011;9102;53.548;9.926;2023-04-01T09:11:33;2.42;;;0.68;;
17953;SDS011;9102;53.548;9.926;2023-04-01T09:17:21;2.40;;;0.80;;
17953;SDS011;9102;53.548;9.926;2023-04-01T09:20:14;2.25;;;0.93;;
17953;SDS011;9102;53.548;9.926;2023-04-01T09:22:58;1.60;;;0.98;;
17953;SDS011;9102;53.548;9.926;2023-04-01T09:25:48;3.45;;;0.90;;
17953;SDS011;9102;53.548;9.926;2023-04-01T09:28:37;1.63;;;0.65;;
17953;SDS011;9102;53.548;9.926;2023-04-01T09:31:11;1.88;;;0.80;;
17953;SDS011;9102;53.548;9.926;2023-04-01T09:36:50;0.95;;;0.77;;
17953;SDS011;9102;53.548;9.926;2023-04-01T09:39:35;1.70;;;0.93;;
17953;SDS011;9102;53.548;9.926;2023-04-01T09:42:21;1.55;;;0.70;;
17953;SDS011;9102;53.548;9.926;2023-04-01T09:45:09;1.13;;;0.98;;
17953;SDS011;9102;53.548;9.926;2023-04-01T09:47:51;1.23;;;0.70;;
17953;SDS011;9102;53.548;9.926;2023-04-01T09:50:35;1.02;;;0.77;;
17953;SDS011;9102;53.548;9.926;2023-04-01T09:53:14;1.02;;;0.70;;
17953;SDS011;9102;53.548;9.926;2023-04-01T09:56:07;2.00;;;1.20;;
17953;SDS011;9102;53.548;9.926;2023-04-01T09:58:56;1.13;;;0.90;;
17953;SDS011;9102;53.548;9.926;2023-04-01T10:05:01;1.48;;;0.77;;
17953;SDS011;9102;53.548;9.926;2023-04-01T10:08:10;2.10;;;0.70;;
17953;SDS011;9102;53.548;9.926;2023-04-01T10:24:02;1.75;;;0.70;;
17953;SDS011;9102;53.548;9.926;2023-04-01T10:29:53;4.07;;;0.75;;
17953;SDS011;9102;53.548;9.926;2023-04-01T10:32:44;1.02;;;0.60;;
17953;SDS011;9102;53.548;9.926;2023-04-01T10:38:49;0.80;;;0.50;;
17953;SDS011;9102;53.548;9.926;2023-04-01T10:41:51;0.90;;;0.50;;
17953;SDS011;9102;53.548;9.926;2023-04-01T10:47:56;0.85;;;0.57;;
17953;SDS011;9102;53.548;9.926;2023-04-01T10:53:43;0.88;;;0.60;;
17953;SDS011;9102;53.548;9.926;2023-04-01T10:56:33;1.27;;;0.70;;
17953;SDS011;9102;53.548;9.926;2023-04-01T10:59:18;1.10;;;0.55;;
17953;SDS011;9102;53.548;9.926;2023-04-01T11:02:30;0.60;;;0.50;;
17953;SDS011;9102;53.548;9.926;2023-04-01T11:05:34;0.98;;;0.60;;
17953;SDS011;9102;53.548;9.926;2023-04-01T11:08:35;1.60;;;0.77;;
17953;SDS011;9102;53.548;9.926;2023-04-01T11:14:28;0.82;;;0.65;;
17953;SDS011;9102;53.548;9.926;2023-04-01T11:20:40;3.95;;;1.08;;
17953;SDS011;9102;53.548;9.926;2023-04-01T11:26:40;0.88;;;0.70;;
17953;SDS011;9102;53.548;9.926;2023-04-01T11:29:23;2.83;;;0.70;;
17953;SDS011;9102;53.548;9.926;2023-04-01T11:32:07;1.55;;;0.77;;
17953;SDS011;9102;53.548;9.926;2023-04-01T11:34:50;1.42;;;0.98;;
17953;SDS011;9102;53.548;9.926;2023-04-01T11:37:34;2.25;;;0.75;;
17953;SDS011;9102;53.548;9.926;2023-04-01T11:40:11;2.45;;;1.30;;
17953;SDS011;9102;53.548;9.926;2023-04-01T11:42:49;1.05;;;0.80;;
17953;SDS011;9102;53.548;9.926;2023-04-01T11:45:25;1.92;;;1.10;;
17953;SDS011;9102;53.548;9.926;2023-04-01T11:50:58;5.10;;;2.35;;
17953;SDS011;9102;53.548;9.926;2023-04-01T11:53:47;3.38;;;1.10;;
17953;SDS011;9102;53.548;9.926;2023-04-01T11:56:27;2.25;;;1.33;;
17953;SDS011;9102;53.548;9.926;2023-04-01T11:59:10;4.13;;;1.40;;
17953;SDS011;9102;53.548;9.926;2023-04-01T12:01:58;2.30;;;1.52;;
17953;SDS011;9102;53.548;9.926;2023-04-01T12:04:47;5.88;;;2.55;;
17953;SDS011;9102;53.548;9.926;2023-04-01T12:07:27;3.88;;;2.20;;
17953;SDS011;9102;53.548;9.926;2023-04-01T12:10:17;3.75;;;2.20;;
17953;SDS011;9102;53.548;9.926;2023-04-01T12:12:48;4.22;;;2.42;;
17953;SDS011;9102;53.548;9.926;2023-04-01T12:15:23;6.05;;;2.80;;
17953;SDS011;9102;53.548;9.926;2023-04-01T12:17:58;8.65;;;2.95;;
17953;SDS011;9102;53.548;9.926;2023-04-01T12:20:37;5.50;;;2.53;;
17953;SDS011;9102;53.548;9.926;2023-04-01T12:23:21;5.30;;;2.67;;
17953;SDS011;9102;53.548;9.926;2023-04-01T12:26:10;6.63;;;3.42;;
17953;SDS011;9102;53.548;9.926;2023-04-01T12:28:53;4.53;;;2.90;;
17953;SDS011;9102;53.548;9.926;2023-04-01T12:31:33;6.05;;;2.95;;
17953;SDS011;9102;53.548;9.926;2023-04-01T12:37:24;8.05;;;3.17;;
17953;SDS011;9102;53.548;9.926;2023-04-01T12:45:45;6.78;;;3.15;;
17953;SDS011;9102;53.548;9.926;2023-04-01T12:57:25;4.47;;;2.88;;
17953;SDS011;9102;53.548;9.926;2023-04-01T13:00:20;4.40;;;2.67;;
17953;SDS011;9102;53.548;9.926;2023-04-01T13:03:02;7.20;;;3.13;;
17953;SDS011;9102;53.548;9.926;2023-04-01T13:05:50;5.70;;;3.70;;
17953;SDS011;9102;53.548;9.926;2023-04-01T13:08:34;8.63;;;3.58;;
17953;SDS011;9102;53.548;9.926;2023-04-01T13:11:09;5.13;;;2.80;;
17953;SDS011;9102;53.548;9.926;2023-04-01T13:16:55;6.57;;;2.78;;
17953;SDS011;9102;53.548;9.926;2023-04-01T13:19:29;6.35;;;3.08;;
17953;SDS011;9102;53.548;9.926;2023-04-01T13:22:04;7.00;;;3.10;;
17953;SDS011;9102;53.548;9.926;2023-04-01T13:24:39;6.18;;;2.80;;
17953;SDS011;9102;53.548;9.926;2023-04-01T13:27:14;8.45;;;2.92;;
17953;SDS011;9102;53.548;9.926;2023-04-01T13:29:46;6.45;;;2.90;;
17953;SDS011;9102;53.548;9.926;2023-04-01T13:32:24;4.95;;;2.60;;
17953;SDS011;9102;53.548;9.926;2023-04-01T13:34:59;6.82;;;2.63;;
17953;SDS011;9102;53.548;9.926;2023-04-01T13:37:42;8.18;;;3.05;;
17953;SDS011;9102;53.548;9.926;2023-04-01T13:40:25;4.88;;;2.75;;
17953;SDS011;9102;53.548;9.926;2023-04-01T13:43:02;5.88;;;3.05;;
17953;SDS011;9102;53.548;9.926;2023-04-01T13:45:38;5.65;;;3.00;;
17953;SDS011;9102;53.548;9.926;2023-04-01T13:48:30;6.90;;;2.95;;
17953;SDS011;9102;53.548;9.926;2023-04-01T13:57:16;3.95;;;2.65;;
17953;SDS011;9102;53.548;9.926;2023-04-01T13:59:59;7.78;;;3.00;;
17953;SDS011;9102;53.548;9.926;2023-04-01T14:02:42;4.32;;;2.67;;
17953;SDS011;9102;53.548;9.926;2023-04-01T14:05:21;5.38;;;2.80;;
17953;SDS011;9102;53.548;9.926;2023-04-01T14:08:00;5.35;;;2.90;;
17953;SDS011;9102;53.548;9.926;2023-04-01T14:10:36;8.38;;;3.45;;
17953;SDS011;9102;53.548;9.926;2023-04-01T14:13:12;6.28;;;2.90;;
17953;SDS011;9102;53.548;9.926;2023-04-01T14:15:53;7.07;;;3.35;;
17953;SDS011;9102;53.548;9.926;2023-04-01T14:18:47;7.88;;;3.50;;
17953;SDS011;9102;53.548;9.926;2023-04-01T14:21:30;8.05;;;3.20;;
17953;SDS011;9102;53.548;9.926;2023-04-01T14:24:07;9.48;;;3.75;;
17953;SDS011;9102;53.548;9.926;2023-04-01T14:29:59;6.93;;;3.15;;
17953;SDS011;9102;53.548;9.926;2023-04-01T14:32:39;6.05;;;3.30;;
17953;SDS011;9102;53.548;9.926;2023-04-01T14:35:21;6.05;;;3.20;;
17953;SDS011;9102;53.548;9.926;2023-04-01T14:38:02;4.72;;;2.78;;
17953;SDS011;9102;53.548;9.926;2023-04-01T14:40:53;9.73;;;3.85;;
17953;SDS011;9102;53.548;9.926;2023-04-01T14:43:32;7.57;;;3.42;;
17953;SDS011;9102;53.548;9.926;2023-04-01T14:49:32;7.43;;;3.20;;
17953;SDS011;9102;53.548;9.926;2023-04-01T14:52:04;6.32;;;3.45;;
17953;SDS011;9102;53.548;9.926;2023-04-01T14:54:37;6.85;;;3.10;;
17953;SDS011;9102;53.548;9.926;2023-04-01T14:57:10;9.43;;;3.10;;
17953;SDS011;9102;53.548;9.926;2023-04-01T14:59:39;9.32;;;3.20;;
17953;SDS011;9102;53.548;9.926;2023-04-01T15:02:10;11.25;;;3.63;;
17953;SDS011;9102;53.548;9.926;2023-04-01T15:04:57;7.22;;;3.42;;
17953;SDS011;9102;53.548;9.926;2023-04-01T15:07:36;7.88;;;3.50;;
17953;SDS011;9102;53.548;9.926;2023-04-01T15:13:25;11.27;;;3.80;;
17953;SDS011;9102;53.548;9.926;2023-04-01T15:16:17;9.50;;;4.78;;
17953;SDS011;9102;53.548;9.926;2023-04-01T15:18:51;8.02;;;4.07;;
17953;SDS011;9102;53.548;9.926;2023-04-01T15:21:36;9.82;;;4.70;;
17953;SDS011;9102;53.548;9.926;2023-04-01T15:24:11;9.43;;;5.13;;
17953;SDS011;9102;53.548;9.926;2023-04-01T15:26:58;19.90;;;5.85;;
17953;SDS011;9102;53.548;9.926;2023-04-01T15:29:39;12.82;;;6.55;;
17953;SDS011;9102;53.548;9.926;2023-04-01T15:32:17;15.82;;;6.78;;
17953;SDS011;9102;53.548;9.926;2023-04-01T15:34:50;18.38;;;7.50;;
17953;SDS011;9102;53.548;9.926;2023-04-01T15:37:29;12.27;;;6.30;;
17953;SDS011;9102;53.548;9.926;2023-04-01T15:40:06;10.80;;;6.00;;
17953;SDS011;9102;53.548;9.926;2023-04-01T15:42:47;13.85;;;6.63;;
17953;SDS011;9102;53.548;9.926;2023-04-01T15:45:27;14.52;;;6.10;;
17953;SDS011;9102;53.548;9.926;2023-04-01T15:48:05;12.85;;;5.93;;
17953;SDS011;9102;53.548;9.926;2023-04-01T15:50:51;13.80;;;6.22;;
17953;SDS011;9102;53.548;9.926;2023-04-01T15:56:43;13.35;;;5.95;;
17953;SDS011;9102;53.548;9.926;2023-04-01T15:59:24;12.82;;;6.70;;
17953;SDS011;9102;53.548;9.926;2023-04-01T16:02:14;15.77;;;9.05;;
17953;SDS011;9102;53.548;9.926;2023-04-01T16:04:48;20.65;;;8.82;;
17953;SDS011;9102;53.548;9.926;2023-04-01T16:10:21;15.43;;;8.20;;
17953;SDS011;9102;53.548;9.926;2023-04-01T16:13:02;14.75;;;7.38;;
17953;SDS011;9102;53.548;9.926;2023-04-01T16:15:42;17.90;;;7.63;;
17953;SDS011;9102;53.548;9.926;2023-04-01T16:18:32;18.42;;;7.50;;
17953;SDS011;9102;53.548;9.926;2023-04-01T16:21:12;19.10;;;7.95;;
17953;SDS011;9102;53.548;9.926;2023-04-01T16:23:48;17.88;;;8.48;;
17953;SDS011;9102;53.548;9.926;2023-04-01T16:26:19;18.90;;;8.98;;
17953;SDS011;9102;53.548;9.926;2023-04-01T16:28:55;25.42;;;8.93;;
17953;SDS011;9102;53.548;9.926;2023-04-01T16:31:32;20.77;;;8.23;;
17953;SDS011;9102;53.548;9.926;2023-04-01T16:34:06;16.50;;;7.68;;
17953;SDS011;9102;53.548;9.926;2023-04-01T16:36:37;14.75;;;7.93;;
17953;SDS011;9102;53.548;9.926;2023-04-01T16:39:17;16.27;;;6.75;;
17953;SDS011;9102;53.548;9.926;2023-04-01T16:45:06;14.80;;;7.10;;
17953;SDS011;9102;53.548;9.926;2023-04-01T16:47:46;18.20;;;7.20;;
17953;SDS011;9102;53.548;9.926;2023-04-01T16:50:18;19.05;;;7.18;;
17953;SDS011;9102;53.548;9.926;2023-04-01T16:52:53;19.30;;;7.28;;
17953;SDS011;9102;53.548;9.926;2023-04-01T16:55:33;16.10;;;7.32;;
17953;SDS011;9102;53.548;9.926;2023-04-01T16:58:01;24.00;;;7.22;;
17953;SDS011;9102;53.548;9.926;2023-04-01T17:00:31;15.02;;;6.75;;
17953;SDS011;9102;53.548;9.926;2023-04-01T17:03:08;13.90;;;7.75;;
17953;SDS011;9102;53.548;9.926;2023-04-01T17:05:45;17.50;;;7.55;;
17953;SDS011;9102;53.548;9.926;2023-04-01T17:08:30;13.95;;;6.72;;
17953;SDS011;9102;53.548;9.926;2023-04-01T17:11:08;21.38;;;8.57;;
17953;SDS011;9102;53.548;9.926;2023-04-01T17:13:45;18.63;;;8.85;;
17953;SDS011;9102;53.548;9.926;2023-04-01T17:19:22;20.30;;;9.32;;
17953;SDS011;9102;53.548;9.926;2023-04-01T17:22:03;19.20;;;8.80;;
17953;SDS011;9102;53.548;9.926;2023-04-01T17:24:41;20.40;;;8.07;;
17953;SDS011;9102;53.548;9.926;2023-04-01T17:27:20;19.52;;;9.20;;